createdAt,value
2022-12-29T00:02:14.484Z,8.71
2022-12-29T00:04:47.027Z,8.77
2022-12-29T00:07:19.683Z,8.79
2022-12-29T00:09:52.012Z,8.81
2022-12-29T00:12:24.513Z,8.79
2022-12-29T00:15:14.215Z,8.85
2022-12-29T00:17:46.552Z,8.75
2022-12-29T00:20:36.811Z,8.63
2022-12-29T00:23:27.915Z,8.67
2022-12-29T00:26:26.286Z,8.71
2022-12-29T00:29:15.920Z,8.81
2022-12-29T00:32:06.346Z,8.81
2022-12-29T00:34:57.500Z,8.81
2022-12-29T00:37:44.292Z,8.86
2022-12-29T00:40:34.394Z,8.79
2022-12-29T00:43:24.489Z,8.80
2022-12-29T00:45:57.076Z,8.83
2022-12-29T00:48:49.011Z,8.82
2022-12-29T00:51:21.384Z,8.73
2022-12-29T00:53:53.804Z,8.85
2022-12-29T00:56:26.239Z,8.79
2022-12-29T00:59:01.777Z,8.79
2022-12-29T01:01:34.618Z,8.82
2022-12-29T01:04:07.528Z,8.79
2022-12-29T01:06:41.998Z,8.70
2022-12-29T01:09:32.119Z,8.85
2022-12-29T01:12:04.628Z,8.91
2022-12-29T01:14:37.247Z,8.98
2022-12-29T01:17:10.239Z,8.92
2022-12-29T01:19:42.693Z,8.93
2022-12-29T01:22:15.129Z,8.88
2022-12-29T01:24:47.881Z,8.91
2022-12-29T01:27:20.554Z,8.87
2022-12-29T01:29:52.923Z,8.93
2022-12-29T01:32:25.257Z,8.98
2022-12-29T01:34:57.677Z,9.09
2022-12-29T01:37:32.609Z,9.05
2022-12-29T01:40:05.583Z,9.06
2022-12-29T01:42:38.223Z,9.16
2022-12-29T01:45:15.790Z,9.02
2022-12-29T01:47:54.500Z,9.11
2022-12-29T01:50:34.518Z,9.14
2022-12-29T01:53:11.829Z,9.04
2022-12-29T01:55:48.907Z,8.95
2022-12-29T01:58:25.484Z,9.10
2022-12-29T02:00:58.128Z,9.17
2022-12-29T02:03:33.638Z,9.11
2022-12-29T02:06:10.656Z,9.15
2022-12-29T02:08:46.389Z,9.22
2022-12-29T02:11:19.854Z,9.11
2022-12-29T02:13:52.286Z,9.06
2022-12-29T02:16:38.929Z,9.13
2022-12-29T02:19:35.912Z,9.13
2022-12-29T02:22:18.585Z,9.19
2022-12-29T02:25:42.048Z,9.22
2022-12-29T02:28:45.571Z,9.14
2022-12-29T02:31:27.388Z,9.02
2022-12-29T02:34:09.259Z,9.06
2022-12-29T02:36:47.293Z,9.01
2022-12-29T02:39:29.010Z,9.10
2022-12-29T02:42:09.945Z,9.08
2022-12-29T02:44:53.927Z,9.10
2022-12-29T02:47:37.865Z,9.01
2022-12-29T02:50:17.599Z,9.02
2022-12-29T02:52:56.592Z,9.06
2022-12-29T02:55:28.921Z,8.99
2022-12-29T02:58:21.055Z,8.93
2022-12-29T03:01:17.043Z,8.85
2022-12-29T03:04:08.828Z,8.78
2022-12-29T03:06:53.306Z,8.62
2022-12-29T03:09:36.944Z,8.58
2022-12-29T03:12:23.009Z,8.75
2022-12-29T03:15:21.678Z,8.79
2022-12-29T03:18:00.287Z,8.74
2022-12-29T03:20:42.846Z,8.68
2022-12-29T03:23:16.516Z,8.70
2022-12-29T03:25:53.560Z,8.74
2022-12-29T03:28:30.133Z,8.75
2022-12-29T03:31:06.155Z,8.58
2022-12-29T03:33:41.720Z,8.64
2022-12-29T03:36:22.389Z,8.70
2022-12-29T03:39:01.861Z,8.71
2022-12-29T03:41:36.620Z,8.73
2022-12-29T03:44:11.915Z,8.73
2022-12-29T03:46:45.312Z,8.67
2022-12-29T03:49:18.216Z,8.75
2022-12-29T03:51:52.018Z,8.72
2022-12-29T03:54:24.005Z,8.74
2022-12-29T03:56:56.338Z,8.70
2022-12-29T03:59:37.934Z,8.73
2022-12-29T04:02:10.461Z,8.73
2022-12-29T04:04:43.517Z,8.71
2022-12-29T04:07:16.235Z,8.74
2022-12-29T04:09:48.981Z,8.74
2022-12-29T04:12:26.699Z,8.66
2022-12-29T04:14:59.555Z,8.61
2022-12-29T04:17:35.178Z,8.60
2022-12-29T04:20:28.212Z,8.73
2022-12-29T04:23:05.915Z,8.74
2022-12-29T04:25:40.421Z,8.71
2022-12-29T04:28:14.614Z,8.61
2022-12-29T04:30:50.754Z,8.66
2022-12-29T04:33:26.688Z,8.75
2022-12-29T04:35:59.720Z,8.69
2022-12-29T04:38:34.390Z,8.70
2022-12-29T04:41:09.786Z,8.74
2022-12-29T04:43:44.361Z,8.87
2022-12-29T04:46:34.896Z,8.78
2022-12-29T04:49:16.518Z,8.65
2022-12-29T04:51:58.866Z,8.77
2022-12-29T04:54:31.606Z,8.65
2022-12-29T04:57:13.190Z,8.85
2022-12-29T04:59:45.781Z,8.80
2022-12-29T05:02:18.864Z,8.73
2022-12-29T05:04:52.514Z,8.88
2022-12-29T05:07:26.167Z,8.96
2022-12-29T05:09:59.974Z,8.93
2022-12-29T05:12:35.128Z,8.80
2022-12-29T05:15:10.991Z,8.92
2022-12-29T05:17:44.315Z,8.93
2022-12-29T05:20:17.585Z,8.90
2022-12-29T05:22:50.646Z,8.92
2022-12-29T05:25:23.000Z,8.92
2022-12-29T05:28:36.018Z,8.97
2022-12-29T05:31:17.663Z,9.09
2022-12-29T05:33:50.981Z,8.99
2022-12-29T05:36:26.020Z,9.01
2022-12-29T05:39:01.822Z,8.96
2022-12-29T05:41:35.418Z,8.96
2022-12-29T05:44:26.277Z,9.01
2022-12-29T05:47:33.856Z,8.99
2022-12-29T05:50:27.971Z,9.12
2022-12-29T05:53:14.600Z,9.03
2022-12-29T05:55:49.311Z,8.98
2022-12-29T05:58:23.004Z,9.03
2022-12-29T06:00:56.037Z,8.99
2022-12-29T06:03:28.588Z,9.03
2022-12-29T06:06:01.331Z,9.08
2022-12-29T06:08:33.997Z,8.91
2022-12-29T06:11:07.409Z,9.05
2022-12-29T06:13:41.227Z,9.13
2022-12-29T06:16:13.997Z,9.06
2022-12-29T06:18:47.889Z,9.05
2022-12-29T06:21:20.447Z,9.10
2022-12-29T06:23:52.938Z,9.16
2022-12-29T06:26:26.650Z,9.26
2022-12-29T06:28:59.275Z,9.17
2022-12-29T06:31:31.836Z,9.18
2022-12-29T06:34:08.351Z,9.22
2022-12-29T06:36:42.775Z,9.28
2022-12-29T06:39:15.639Z,9.21
2022-12-29T06:41:57.280Z,9.17
2022-12-29T06:44:47.642Z,9.29
2022-12-29T06:47:20.861Z,9.17
2022-12-29T06:49:53.288Z,9.12
2022-12-29T06:52:26.073Z,9.22
2022-12-29T06:54:59.958Z,9.31
2022-12-29T06:57:41.101Z,9.31
2022-12-29T07:00:22.506Z,9.30
2022-12-29T07:02:56.940Z,9.39
2022-12-29T07:05:32.561Z,9.47
2022-12-29T07:08:05.357Z,9.58
2022-12-29T07:10:37.720Z,9.52
2022-12-29T07:13:10.385Z,9.50
2022-12-29T07:15:43.109Z,9.44
2022-12-29T07:18:15.642Z,9.42
2022-12-29T07:20:48.016Z,9.45
2022-12-29T07:23:20.758Z,9.50
2022-12-29T07:26:00.584Z,9.55
2022-12-29T07:28:33.482Z,9.59
2022-12-29T07:31:06.797Z,9.60
2022-12-29T07:33:39.792Z,9.58
2022-12-29T07:36:12.778Z,9.58
2022-12-29T07:38:46.046Z,9.69
2022-12-29T07:41:19.193Z,9.72
2022-12-29T07:43:53.116Z,9.82
2022-12-29T07:46:55.336Z,9.68
2022-12-29T07:49:29.600Z,9.79
2022-12-29T07:52:02.046Z,9.81
2022-12-29T07:54:34.615Z,9.89
2022-12-29T07:57:08.571Z,9.81
2022-12-29T07:59:41.000Z,9.92
2022-12-29T08:02:14.529Z,9.96
2022-12-29T08:04:47.087Z,10.00
2022-12-29T08:07:19.442Z,9.95
2022-12-29T08:09:51.831Z,9.92
2022-12-29T08:12:24.567Z,9.99
2022-12-29T08:14:56.961Z,9.79
2022-12-29T08:17:29.433Z,9.96
2022-12-29T08:20:01.832Z,10.01
2022-12-29T08:22:34.203Z,10.12
2022-12-29T08:25:07.507Z,10.16
2022-12-29T08:27:40.031Z,10.13
2022-12-29T08:30:14.652Z,10.14
2022-12-29T08:32:46.684Z,10.09
2022-12-29T08:35:29.023Z,10.02
2022-12-29T08:38:01.741Z,9.98
2022-12-29T08:40:34.178Z,10.05
2022-12-29T08:43:08.864Z,10.06
2022-12-29T08:45:41.416Z,10.04
2022-12-29T08:48:14.333Z,10.13
2022-12-29T08:50:48.534Z,10.18
2022-12-29T08:53:21.316Z,10.19
2022-12-29T08:56:04.969Z,10.13
2022-12-29T08:58:41.637Z,10.24
2022-12-29T09:01:14.484Z,10.25
2022-12-29T09:06:40.754Z,10.34
2022-12-29T09:09:13.705Z,10.38
2022-12-29T09:11:46.442Z,10.41
2022-12-29T09:14:18.875Z,10.48
2022-12-29T09:17:10.625Z,10.47
2022-12-29T09:19:44.124Z,10.61
2022-12-29T09:22:16.522Z,10.51
2022-12-29T09:24:49.021Z,10.47
2022-12-29T09:27:21.862Z,10.54
2022-12-29T09:29:54.476Z,10.55
2022-12-29T09:32:36.842Z,10.59
2022-12-29T09:35:11.908Z,10.55
2022-12-29T09:37:44.504Z,10.51
2022-12-29T09:40:30.250Z,10.63
2022-12-29T09:43:19.890Z,10.72
2022-12-29T09:46:00.549Z,10.59
2022-12-29T09:48:37.030Z,10.65
2022-12-29T09:51:15.635Z,10.78
2022-12-29T09:53:54.266Z,10.85
2022-12-29T09:56:30.565Z,10.76
2022-12-29T09:59:09.780Z,10.80
2022-12-29T10:01:48.131Z,10.87
2022-12-29T10:04:20.711Z,10.90
2022-12-29T10:10:03.747Z,10.99
2022-12-29T10:12:50.460Z,11.05
2022-12-29T10:15:45.325Z,11.09
2022-12-29T10:18:34.662Z,11.10
2022-12-29T10:21:15.510Z,11.13
2022-12-29T10:23:51.143Z,11.20
2022-12-29T10:26:27.976Z,11.24
2022-12-29T10:29:05.112Z,11.32
2022-12-29T10:31:40.956Z,11.36
2022-12-29T10:34:22.193Z,11.39
2022-12-29T10:36:59.418Z,11.49
2022-12-29T10:39:36.662Z,11.56
2022-12-29T10:42:16.116Z,11.69
2022-12-29T10:44:48.875Z,11.90
2022-12-29T10:47:25.831Z,11.93
2022-12-29T10:49:59.472Z,12.00
2022-12-29T10:52:33.418Z,12.01
2022-12-29T10:55:12.364Z,12.04
2022-12-29T10:57:47.635Z,12.09
2022-12-29T11:00:23.987Z,12.20
2022-12-29T11:03:18.489Z,12.28
2022-12-29T11:05:57.161Z,12.27
2022-12-29T11:08:35.563Z,12.40
2022-12-29T11:11:10.490Z,12.45
2022-12-29T11:13:53.360Z,12.51
2022-12-29T11:16:33.909Z,12.50
2022-12-29T11:19:06.525Z,12.56
2022-12-29T11:21:41.545Z,12.56
2022-12-29T11:24:25.643Z,12.55
2022-12-29T11:27:13.335Z,12.58
2022-12-29T11:29:46.153Z,12.64
2022-12-29T11:32:28.209Z,12.79
2022-12-29T11:35:02.790Z,12.89
2022-12-29T11:37:41.338Z,12.92
2022-12-29T11:40:22.889Z,12.95
2022-12-29T11:42:57.815Z,12.99
2022-12-29T11:45:33.660Z,12.88
2022-12-29T11:48:12.295Z,12.65
2022-12-29T11:50:50.908Z,12.48
2022-12-29T11:53:26.308Z,12.38
2022-12-29T11:56:01.551Z,12.54
2022-12-29T11:58:35.854Z,12.56
2022-12-29T12:01:15.386Z,12.72
2022-12-29T12:03:50.847Z,12.78
2022-12-29T12:06:25.829Z,12.77
2022-12-29T12:08:58.555Z,12.84
2022-12-29T12:11:38.000Z,12.78
2022-12-29T12:14:20.170Z,12.99
2022-12-29T12:17:19.980Z,13.03
2022-12-29T12:20:01.600Z,12.94
2022-12-29T12:22:37.535Z,12.88
2022-12-29T12:25:20.171Z,12.98
2022-12-29T12:27:59.870Z,13.02
2022-12-29T12:30:40.198Z,12.81
2022-12-29T12:33:24.474Z,12.77
2022-12-29T12:36:16.681Z,12.83
2022-12-29T12:39:00.921Z,12.74
2022-12-29T12:41:45.722Z,12.72
2022-12-29T12:44:26.938Z,12.77
2022-12-29T12:47:15.867Z,12.70
2022-12-29T12:50:17.412Z,12.73
2022-12-29T12:53:05.914Z,12.67
2022-12-29T12:56:05.018Z,12.49
2022-12-29T12:58:50.575Z,12.57
2022-12-29T13:01:36.173Z,12.66
2022-12-29T13:04:31.549Z,12.71
2022-12-29T13:07:12.753Z,12.70
2022-12-29T13:09:56.894Z,12.71
2022-12-29T13:12:38.573Z,12.73
2022-12-29T13:15:24.008Z,12.70
2022-12-29T13:18:06.618Z,12.72
2022-12-29T13:20:44.007Z,12.70
2022-12-29T13:23:26.922Z,12.67
2022-12-29T13:26:07.030Z,12.73
2022-12-29T13:32:15.824Z,12.58
2022-12-29T13:34:59.204Z,12.57
2022-12-29T13:37:35.816Z,12.54
2022-12-29T13:40:45.385Z,12.50
2022-12-29T13:43:22.383Z,12.45
2022-12-29T13:46:02.154Z,12.42
2022-12-29T13:48:44.057Z,12.44
2022-12-29T13:51:21.386Z,12.46
2022-12-29T13:54:13.699Z,12.29
2022-12-29T13:56:53.438Z,12.42
2022-12-29T13:59:41.448Z,12.40
2022-12-29T14:02:23.993Z,12.35
2022-12-29T14:05:05.697Z,12.32
2022-12-29T14:07:42.057Z,12.36
2022-12-29T14:10:31.445Z,12.44
2022-12-29T14:13:16.981Z,12.41
2022-12-29T14:15:58.921Z,12.39
2022-12-29T14:18:34.414Z,12.40
2022-12-29T14:21:19.816Z,12.42
2022-12-29T14:23:55.036Z,12.22
2022-12-29T14:27:03.398Z,12.17
2022-12-29T14:29:48.398Z,12.27
2022-12-29T14:32:36.779Z,12.17
2022-12-29T14:35:40.675Z,12.13
2022-12-29T14:38:21.826Z,12.11
2022-12-29T14:40:55.504Z,12.19
2022-12-29T14:43:31.654Z,12.14
2022-12-29T14:46:05.233Z,12.16
2022-12-29T14:48:44.892Z,12.17
2022-12-29T14:51:32.238Z,12.25
2022-12-29T14:54:37.996Z,12.20
2022-12-29T14:57:09.888Z,12.06
2022-12-29T14:59:43.019Z,12.02
2022-12-29T15:02:22.677Z,12.12
2022-12-29T15:04:56.173Z,11.99
2022-12-29T15:07:31.191Z,11.97
2022-12-29T15:10:09.924Z,11.95
2022-12-29T15:12:48.995Z,11.95
2022-12-29T15:15:25.325Z,12.01
2022-12-29T15:17:58.277Z,12.08
2022-12-29T15:20:33.869Z,12.04
2022-12-29T15:23:11.785Z,11.88
2022-12-29T15:25:53.338Z,11.81
2022-12-29T15:28:27.981Z,11.84
2022-12-29T15:31:07.011Z,11.87
2022-12-29T15:33:44.884Z,11.93
2022-12-29T15:36:21.218Z,11.78
2022-12-29T15:38:54.549Z,11.66
2022-12-29T15:41:59.188Z,11.83
2022-12-29T15:44:38.579Z,11.76
2022-12-29T15:47:19.168Z,11.89
2022-12-29T15:49:55.182Z,11.81
2022-12-29T15:52:27.944Z,11.75
2022-12-29T15:55:02.823Z,11.75
2022-12-29T15:57:46.406Z,11.66
2022-12-29T16:00:34.443Z,11.71
2022-12-29T16:03:14.512Z,11.71
2022-12-29T16:05:54.377Z,11.64
2022-12-29T16:08:34.858Z,11.58
2022-12-29T16:11:26.317Z,11.69
2022-12-29T16:13:59.745Z,11.57
2022-12-29T16:16:35.639Z,11.63
2022-12-29T16:19:15.808Z,11.43
2022-12-29T16:21:49.056Z,11.60
2022-12-29T16:24:25.858Z,11.53
2022-12-29T16:27:10.887Z,11.47
2022-12-29T16:29:44.153Z,11.45
2022-12-29T16:32:30.266Z,11.49
2022-12-29T16:35:19.308Z,11.40
2022-12-29T16:38:09.199Z,11.32
2022-12-29T16:40:54.158Z,11.50
2022-12-29T16:43:29.406Z,11.44
2022-12-29T16:46:32.483Z,11.36
2022-12-29T16:49:06.437Z,11.43
2022-12-29T16:51:41.536Z,11.42
2022-12-29T16:54:24.228Z,11.50
2022-12-29T16:56:57.778Z,11.54
2022-12-29T16:59:38.202Z,11.59
2022-12-29T17:02:17.978Z,11.50
2022-12-29T17:04:51.659Z,11.46
2022-12-29T17:07:26.721Z,11.49
2022-12-29T17:09:59.604Z,11.62
2022-12-29T17:12:35.395Z,11.55
2022-12-29T17:15:14.430Z,11.56
2022-12-29T17:17:49.178Z,11.64
2022-12-29T17:20:22.917Z,11.64
2022-12-29T17:22:55.581Z,11.52
2022-12-29T17:25:32.167Z,11.65
2022-12-29T17:28:14.115Z,11.66
2022-12-29T17:30:46.779Z,11.61
2022-12-29T17:33:22.057Z,11.67
2022-12-29T17:35:55.938Z,11.64
2022-12-29T17:38:31.895Z,11.65
2022-12-29T17:41:05.157Z,11.63
2022-12-29T17:43:38.386Z,11.57
2022-12-29T17:46:11.581Z,11.65
2022-12-29T17:48:49.662Z,11.65
2022-12-29T17:51:26.391Z,11.56
2022-12-29T17:53:58.897Z,11.66
2022-12-29T17:56:31.728Z,11.60
2022-12-29T17:59:04.611Z,11.49
2022-12-29T18:01:40.998Z,11.43
2022-12-29T18:04:18.296Z,11.39
2022-12-29T18:06:50.907Z,11.34
2022-12-29T18:09:23.498Z,11.27
2022-12-29T18:11:56.013Z,11.26
2022-12-29T18:14:28.654Z,11.26
2022-12-29T18:17:01.110Z,11.15
2022-12-29T18:19:36.112Z,11.11
2022-12-29T18:22:09.823Z,11.18
2022-12-29T18:24:42.362Z,11.12
2022-12-29T18:27:17.835Z,11.10
2022-12-29T18:29:50.953Z,11.05
2022-12-29T18:32:23.406Z,11.07
2022-12-29T18:34:55.764Z,11.10
2022-12-29T18:37:28.324Z,10.99
2022-12-29T18:40:00.818Z,11.08
2022-12-29T18:42:33.589Z,11.17
2022-12-29T18:45:19.048Z,11.00
2022-12-29T18:47:52.313Z,10.88
2022-12-29T18:50:24.965Z,10.86
2022-12-29T18:53:03.544Z,10.96
2022-12-29T18:55:36.684Z,10.98
2022-12-29T18:58:09.314Z,10.97
2022-12-29T19:00:42.187Z,10.86
2022-12-29T19:03:16.607Z,10.96
2022-12-29T19:05:49.995Z,10.99
2022-12-29T19:08:22.672Z,10.96
2022-12-29T19:10:55.114Z,11.00
2022-12-29T19:13:29.566Z,10.96
2022-12-29T19:16:04.060Z,11.03
2022-12-29T19:18:46.265Z,11.04
2022-12-29T19:21:22.098Z,11.07
2022-12-29T19:23:55.078Z,10.97
2022-12-29T19:26:34.420Z,11.05
2022-12-29T19:29:09.166Z,10.97
2022-12-29T19:31:42.002Z,10.99
2022-12-29T19:34:16.739Z,11.11
2022-12-29T19:36:49.239Z,11.09
2022-12-29T19:39:22.188Z,11.14
2022-12-29T19:41:59.045Z,11.18
2022-12-29T19:44:34.848Z,11.16
2022-12-29T19:47:07.522Z,11.18
2022-12-29T19:49:39.993Z,11.17
2022-12-29T19:52:12.525Z,11.15
2022-12-29T19:54:45.242Z,11.16
2022-12-29T19:57:17.729Z,11.15
2022-12-29T19:59:50.401Z,11.18
2022-12-29T20:02:25.788Z,11.22
2022-12-29T20:04:59.005Z,11.18
2022-12-29T20:07:31.838Z,11.14
2022-12-29T20:10:05.519Z,11.12
2022-12-29T20:12:40.248Z,11.12
2022-12-29T20:15:15.152Z,11.04
2022-12-29T20:18:15.470Z,10.94
2022-12-29T20:20:40.604Z,10.95
2022-12-29T20:23:12.986Z,10.97
2022-12-29T20:25:47.001Z,10.98
2022-12-29T20:28:20.525Z,10.92
2022-12-29T20:31:02.994Z,10.83
2022-12-29T20:33:38.457Z,10.92
2022-12-29T20:36:15.250Z,10.92
2022-12-29T20:38:49.437Z,10.93
2022-12-29T20:41:22.916Z,10.78
2022-12-29T20:43:56.051Z,10.73
2022-12-29T20:46:35.369Z,10.82
2022-12-29T20:49:13.782Z,10.77
2022-12-29T20:54:40.117Z,10.79
2022-12-29T20:57:12.828Z,10.76
2022-12-29T20:59:45.775Z,10.82
2022-12-29T21:02:24.206Z,10.80
2022-12-29T21:05:22.602Z,10.77
2022-12-29T21:07:50.392Z,10.67
2022-12-29T21:10:23.620Z,10.73
2022-12-29T21:12:56.415Z,10.77
2022-12-29T21:15:30.127Z,10.71
2022-12-29T21:18:02.604Z,10.74
2022-12-29T21:20:35.472Z,10.74
2022-12-29T21:23:08.969Z,10.73
2022-12-29T21:25:46.602Z,10.84
2022-12-29T21:28:19.408Z,10.79
2022-12-29T21:30:52.665Z,10.80
2022-12-29T21:33:25.396Z,10.77
2022-12-29T21:36:04.367Z,10.68
2022-12-29T21:38:37.277Z,10.71
2022-12-29T21:41:12.175Z,10.76
2022-12-29T21:44:08.970Z,10.84
2022-12-29T21:46:44.116Z,10.82
2022-12-29T21:49:17.355Z,10.79
2022-12-29T21:51:54.272Z,10.84
2022-12-29T21:54:46.363Z,10.87
2022-12-29T21:57:34.823Z,10.79
2022-12-29T22:00:28.326Z,10.92
2022-12-29T22:03:23.170Z,10.78
2022-12-29T22:06:14.761Z,10.86
2022-12-29T22:09:05.196Z,10.87
2022-12-29T22:11:55.388Z,10.82
2022-12-29T22:14:28.062Z,10.84
2022-12-29T22:17:01.028Z,11.02
2022-12-29T22:19:33.548Z,10.99
2022-12-29T22:22:06.709Z,10.95
2022-12-29T22:24:39.251Z,10.96
2022-12-29T22:27:12.255Z,10.98
2022-12-29T22:29:45.008Z,10.90
2022-12-29T22:32:18.053Z,11.00
2022-12-29T22:34:51.579Z,11.08
2022-12-29T22:37:24.270Z,10.92
2022-12-29T22:39:56.726Z,10.93
2022-12-29T22:42:29.509Z,10.82
2022-12-29T22:45:02.168Z,10.85
2022-12-29T22:47:34.628Z,10.84
2022-12-29T22:50:08.460Z,10.91
2022-12-29T22:52:41.048Z,10.82
2022-12-29T22:55:14.080Z,10.84
2022-12-29T22:57:46.581Z,10.90
2022-12-29T23:00:19.651Z,10.98
2022-12-29T23:02:52.313Z,10.87
2022-12-29T23:05:25.010Z,10.83
2022-12-29T23:07:57.581Z,10.74
2022-12-29T23:10:29.913Z,10.75
2022-12-29T23:13:02.366Z,10.85
2022-12-29T23:15:38.522Z,10.90
2022-12-29T23:18:11.575Z,10.90
2022-12-29T23:20:44.786Z,10.84
2022-12-29T23:23:43.246Z,10.88
2022-12-29T23:26:23.790Z,10.83
2022-12-29T23:29:00.291Z,10.92
2022-12-29T23:31:35.059Z,10.88
2022-12-29T23:34:09.511Z,10.78
2022-12-29T23:36:42.359Z,10.62
2022-12-29T23:39:21.488Z,10.74
2022-12-29T23:41:54.068Z,10.65
2022-12-29T23:44:26.800Z,10.85
2022-12-29T23:46:59.437Z,10.81
2022-12-29T23:49:32.213Z,10.54
2022-12-29T23:52:04.741Z,10.70
2022-12-29T23:54:37.447Z,10.76
2022-12-29T23:57:09.830Z,10.76
2022-12-29T23:59:42.324Z,10.74
